createdAt,value
2018-11-23T00:00:34.744Z,75.80
2018-11-23T00:01:35.218Z,75.91
2018-11-23T00:02:35.684Z,76.00
2018-11-23T00:03:36.160Z,76.18
2018-11-23T00:04:36.627Z,76.31
2018-11-23T00:05:37.096Z,76.19
2018-11-23T00:06:37.570Z,76.16
2018-11-23T00:07:38.039Z,76.22
2018-11-23T00:08:38.509Z,76.59
2018-11-23T00:09:38.982Z,76.55
2018-11-23T00:10:39.454Z,76.85
2018-11-23T00:11:39.920Z,77.00
2018-11-23T00:12:40.391Z,77.76
2018-11-23T00:13:40.861Z,77.65
2018-11-23T00:14:41.331Z,77.55
2018-11-23T00:15:41.806Z,78.10
2018-11-23T00:16:42.272Z,78.44
2018-11-23T00:17:42.742Z,78.98
2018-11-23T00:18:43.218Z,79.68
2018-11-23T00:19:43.686Z,79.99
2018-11-23T00:20:44.154Z,80.25
2018-11-23T00:21:44.626Z,80.34
2018-11-23T00:22:45.095Z,80.16
2018-11-23T00:23:45.575Z,80.03
2018-11-23T00:24:46.034Z,79.90
2018-11-23T00:25:46.508Z,79.56
2018-11-23T00:26:46.976Z,78.98
2018-11-23T00:27:47.446Z,78.71
2018-11-23T00:28:47.916Z,78.68
2018-11-23T00:29:48.387Z,78.40
2018-11-23T00:30:48.857Z,78.31
2018-11-23T00:31:49.333Z,78.58
2018-11-23T00:32:49.800Z,79.21
2018-11-23T00:33:50.273Z,78.62
2018-11-23T00:34:50.742Z,78.24
2018-11-23T00:35:51.211Z,78.38
2018-11-23T00:36:51.682Z,78.38
2018-11-23T00:37:52.154Z,78.24
2018-11-23T00:38:52.621Z,78.62
2018-11-23T00:39:53.091Z,78.74
2018-11-23T00:40:53.565Z,78.62
2018-11-23T00:41:54.032Z,78.78
2018-11-23T00:42:54.505Z,78.94
2018-11-23T00:43:54.974Z,78.96
2018-11-23T00:44:55.447Z,78.86
2018-11-23T00:45:55.914Z,79.00
2018-11-23T00:46:56.390Z,78.91
2018-11-23T00:47:56.855Z,78.63
2018-11-23T00:48:57.327Z,78.41
2018-11-23T00:49:57.796Z,78.45
2018-11-23T00:50:58.267Z,78.29
2018-11-23T00:51:58.740Z,78.35
2018-11-23T00:52:59.206Z,78.48
2018-11-23T00:53:59.678Z,78.61
2018-11-23T00:55:00.151Z,78.77
2018-11-23T00:56:00.622Z,78.66
2018-11-23T00:57:01.088Z,78.65
2018-11-23T00:58:01.560Z,78.63
2018-11-23T00:59:02.029Z,78.93
2018-11-23T01:00:02.501Z,78.94
2018-11-23T01:01:02.972Z,78.78
2018-11-23T01:02:03.441Z,79.01
2018-11-23T01:03:03.910Z,78.92
2018-11-23T01:04:04.380Z,78.75
2018-11-23T01:05:04.851Z,78.62
2018-11-23T01:06:05.324Z,78.58
2018-11-23T01:07:05.796Z,78.43
2018-11-23T01:08:06.261Z,78.53
2018-11-23T01:09:06.732Z,78.95
2018-11-23T01:10:07.202Z,79.71
2018-11-23T01:11:07.674Z,80.42
2018-11-23T01:12:08.142Z,80.28
2018-11-23T01:13:08.615Z,79.29
2018-11-23T01:14:09.085Z,79.05
2018-11-23T01:15:09.554Z,79.12
2018-11-23T01:16:10.025Z,78.94
2018-11-23T01:17:10.495Z,78.72
2018-11-23T01:18:10.964Z,78.40
2018-11-23T01:19:11.435Z,78.08
2018-11-23T01:20:11.906Z,78.06
2018-11-23T01:21:12.374Z,78.25
2018-11-23T01:22:12.846Z,78.31
2018-11-23T01:23:13.315Z,78.40
2018-11-23T01:24:13.788Z,78.27
2018-11-23T01:25:14.258Z,78.10
2018-11-23T01:26:14.726Z,78.01
2018-11-23T01:27:15.196Z,78.01
2018-11-23T01:28:15.665Z,77.78
2018-11-23T01:29:16.135Z,77.92
2018-11-23T01:30:16.619Z,77.94
2018-11-23T01:31:17.076Z,78.08
2018-11-23T01:32:17.546Z,78.13
2018-11-23T01:33:18.015Z,78.43
2018-11-23T01:34:18.487Z,78.63
2018-11-23T01:35:18.955Z,78.33
2018-11-23T01:36:19.427Z,78.29
2018-11-23T01:37:19.895Z,77.99
2018-11-23T01:38:20.368Z,78.06
2018-11-23T01:39:20.841Z,78.67
2018-11-23T01:40:21.306Z,78.97
2018-11-23T01:41:21.776Z,78.51
2018-11-23T01:42:22.246Z,78.21
2018-11-23T01:43:22.716Z,77.77
2018-11-23T01:44:23.187Z,78.08
2018-11-23T01:45:23.657Z,78.38
2018-11-23T01:46:24.129Z,77.83
2018-11-23T01:47:24.595Z,77.83
2018-11-23T01:48:25.069Z,78.01
2018-11-23T01:49:25.533Z,77.96
2018-11-23T01:50:26.004Z,77.82
2018-11-23T01:51:26.477Z,77.81
2018-11-23T01:52:26.945Z,78.35
2018-11-23T01:53:27.413Z,78.44
2018-11-23T01:54:27.884Z,78.17
2018-11-23T01:55:28.354Z,78.45
2018-11-23T01:56:28.824Z,78.47
2018-11-23T01:57:29.295Z,78.72
2018-11-23T01:58:29.766Z,78.56
2018-11-23T01:59:30.233Z,78.37
2018-11-23T02:00:30.704Z,78.01
2018-11-23T02:01:31.172Z,78.20
2018-11-23T02:02:31.642Z,77.48
2018-11-23T02:03:32.111Z,77.10
2018-11-23T02:04:32.583Z,77.25
2018-11-23T02:05:33.053Z,77.54
2018-11-23T02:06:33.521Z,77.49
2018-11-23T02:07:33.992Z,77.87
2018-11-23T02:08:34.462Z,78.02
2018-11-23T02:09:34.930Z,78.13
2018-11-23T02:10:35.400Z,77.97
2018-11-23T02:11:35.871Z,78.25
2018-11-23T02:12:36.339Z,78.20
2018-11-23T02:13:36.811Z,77.70
2018-11-23T02:14:37.280Z,77.69
2018-11-23T02:15:37.753Z,77.69
2018-11-23T02:16:38.220Z,77.60
2018-11-23T02:17:38.690Z,77.87
2018-11-23T02:18:39.157Z,78.02
2018-11-23T02:19:39.627Z,77.57
2018-11-23T02:20:40.095Z,78.29
2018-11-23T02:21:40.566Z,78.96
2018-11-23T02:22:41.035Z,79.03
2018-11-23T02:23:41.505Z,78.92
2018-11-23T02:24:41.977Z,78.23
2018-11-23T02:25:42.445Z,77.77
2018-11-23T02:26:42.916Z,77.84
2018-11-23T02:27:43.429Z,78.89
2018-11-23T02:28:43.909Z,79.26
2018-11-23T02:29:44.963Z,79.26
2018-11-23T02:30:44.795Z,78.80
2018-11-23T02:31:45.263Z,79.39
2018-11-23T02:32:45.731Z,79.67
2018-11-23T02:33:46.202Z,79.61
2018-11-23T02:34:46.670Z,79.42
2018-11-23T02:35:47.140Z,79.20
2018-11-23T02:36:47.610Z,78.79
2018-11-23T02:37:48.079Z,78.92
2018-11-23T02:38:48.592Z,78.95
2018-11-23T02:39:49.032Z,79.21
2018-11-23T02:40:49.489Z,78.93
2018-11-23T02:41:49.954Z,79.02
2018-11-23T02:42:50.480Z,79.37
2018-11-23T02:43:50.898Z,79.15
2018-11-23T02:44:51.364Z,79.63
2018-11-23T02:45:51.835Z,79.54
2018-11-23T02:46:52.305Z,79.87
2018-11-23T02:47:52.772Z,79.34
2018-11-23T02:48:53.242Z,79.13
2018-11-23T02:49:53.716Z,79.12
2018-11-23T02:50:54.179Z,79.38
2018-11-23T02:51:54.651Z,79.76
2018-11-23T02:52:55.121Z,80.03
2018-11-23T02:53:55.593Z,80.07
2018-11-23T02:54:56.056Z,80.39
2018-11-23T02:55:56.526Z,80.36
2018-11-23T02:56:57.000Z,80.32
2018-11-23T02:57:57.465Z,79.98
2018-11-23T02:58:57.935Z,79.96
2018-11-23T02:59:58.406Z,79.88
2018-11-23T03:00:58.873Z,79.92
2018-11-23T03:01:59.343Z,79.92
2018-11-23T03:02:59.813Z,80.09
2018-11-23T03:04:00.282Z,80.07
2018-11-23T03:05:00.750Z,79.90
2018-11-23T03:06:01.220Z,79.95
2018-11-23T03:07:01.687Z,79.63
2018-11-23T03:08:02.165Z,79.59
2018-11-23T03:09:02.628Z,79.40
2018-11-23T03:10:03.094Z,79.14
2018-11-23T03:11:03.564Z,80.10
2018-11-23T03:12:04.037Z,79.89
2018-11-23T03:13:04.504Z,79.68
2018-11-23T03:14:04.973Z,79.22
2018-11-23T03:15:05.443Z,79.11
2018-11-23T03:16:05.911Z,78.96
2018-11-23T03:17:06.382Z,79.54
2018-11-23T03:18:06.848Z,79.51
2018-11-23T03:19:07.319Z,79.43
2018-11-23T03:20:07.785Z,79.46
2018-11-23T03:21:08.255Z,79.11
2018-11-23T03:22:08.726Z,79.23
2018-11-23T03:23:09.195Z,79.19
2018-11-23T03:24:09.667Z,78.87
2018-11-23T03:25:10.133Z,78.84
2018-11-23T03:26:10.605Z,78.93
2018-11-23T03:27:11.072Z,79.00
2018-11-23T03:28:11.539Z,78.91
2018-11-23T03:29:12.010Z,78.67
2018-11-23T03:30:12.478Z,79.41
2018-11-23T03:31:12.944Z,79.63
2018-11-23T03:32:13.414Z,79.22
2018-11-23T03:33:13.887Z,79.50
2018-11-23T03:34:14.354Z,79.58
2018-11-23T03:35:14.822Z,79.01
2018-11-23T03:36:15.291Z,78.37
2018-11-23T03:37:15.759Z,78.17
2018-11-23T03:38:16.228Z,78.20
2018-11-23T03:39:16.698Z,78.16
2018-11-23T03:40:17.166Z,78.41
2018-11-23T03:41:17.635Z,78.02
2018-11-23T03:42:18.104Z,77.49
2018-11-23T03:43:18.576Z,76.99
2018-11-23T03:44:19.041Z,76.99
2018-11-23T03:45:19.510Z,77.27
2018-11-23T03:46:19.979Z,77.10
2018-11-23T03:47:20.448Z,77.21
2018-11-23T03:48:20.918Z,77.27
2018-11-23T03:49:21.388Z,77.06
2018-11-23T03:50:21.857Z,77.37
2018-11-23T03:51:22.325Z,77.72
2018-11-23T03:52:22.796Z,78.04
2018-11-23T03:53:23.266Z,78.16
2018-11-23T03:54:23.730Z,78.21
2018-11-23T03:55:24.199Z,78.07
2018-11-23T03:56:24.667Z,77.57
2018-11-23T03:57:25.137Z,78.44
2018-11-23T03:58:25.605Z,78.00
2018-11-23T03:59:26.073Z,78.45
2018-11-23T04:00:26.545Z,78.46
2018-11-23T04:01:27.015Z,78.50
2018-11-23T04:02:27.480Z,78.83
2018-11-23T04:03:27.952Z,78.61
2018-11-23T04:04:28.419Z,78.97
2018-11-23T04:05:28.887Z,78.56
2018-11-23T04:06:29.357Z,78.34
2018-11-23T04:07:29.824Z,78.10
2018-11-23T04:08:30.294Z,78.08
2018-11-23T04:09:30.763Z,77.79
2018-11-23T04:10:31.231Z,78.02
2018-11-23T04:11:31.699Z,78.00
2018-11-23T04:12:32.167Z,77.65
2018-11-23T04:13:32.638Z,77.46
2018-11-23T04:14:33.105Z,77.14
2018-11-23T04:15:33.573Z,78.19
2018-11-23T04:16:34.044Z,78.19
2018-11-23T04:17:34.511Z,77.98
2018-11-23T04:18:34.984Z,78.17
2018-11-23T04:19:35.449Z,78.48
2018-11-23T04:20:35.919Z,78.07
2018-11-23T04:21:36.389Z,77.92
2018-11-23T04:22:36.854Z,78.37
2018-11-23T04:23:37.328Z,77.83
2018-11-23T04:24:37.810Z,78.00
2018-11-23T04:25:38.262Z,77.58
2018-11-23T04:26:38.729Z,76.94
2018-11-23T04:27:39.198Z,76.53
2018-11-23T04:28:39.665Z,76.52
2018-11-23T04:29:40.134Z,76.31
2018-11-23T04:30:40.603Z,76.10
2018-11-23T04:31:41.071Z,75.98
2018-11-23T04:32:41.542Z,76.04
2018-11-23T04:33:42.011Z,75.09
2018-11-23T04:34:42.477Z,74.66
2018-11-23T04:35:42.945Z,73.98
2018-11-23T04:36:43.415Z,73.05
2018-11-23T04:37:43.884Z,72.19
2018-11-23T04:38:44.352Z,71.69
2018-11-23T04:39:44.819Z,69.79
2018-11-23T04:40:45.289Z,67.86
2018-11-23T04:41:46.488Z,66.17
2018-11-23T04:42:46.241Z,67.19
2018-11-23T04:43:46.694Z,69.21
2018-11-23T04:44:47.262Z,70.09
2018-11-23T04:45:47.630Z,69.95
2018-11-23T04:46:48.104Z,71.10
2018-11-23T04:47:48.567Z,72.11
2018-11-23T04:48:49.038Z,71.14
2018-11-23T04:49:49.502Z,70.46
2018-11-23T04:50:49.970Z,69.63
2018-11-23T04:51:50.441Z,69.84
2018-11-23T04:52:50.909Z,65.52
2018-11-23T04:53:51.377Z,64.63
2018-11-23T04:54:51.846Z,60.62
2018-11-23T04:55:52.315Z,61.38
2018-11-23T04:56:52.785Z,61.55
2018-11-23T04:57:53.816Z,63.08
2018-11-23T04:58:53.720Z,63.30
2018-11-23T04:59:54.188Z,59.45
2018-11-23T05:00:54.659Z,61.12
2018-11-23T05:01:55.125Z,59.67
2018-11-23T05:02:55.591Z,58.88
2018-11-23T05:03:56.062Z,59.54
2018-11-23T05:04:56.527Z,60.52
2018-11-23T05:05:56.996Z,58.61
2018-11-23T05:06:57.464Z,54.84
2018-11-23T05:07:57.931Z,50.71
2018-11-23T05:08:58.407Z,47.67
2018-11-23T05:09:58.869Z,48.24
2018-11-23T05:10:59.339Z,52.04
2018-11-23T05:11:59.808Z,57.52
2018-11-23T05:13:00.274Z,60.56
2018-11-23T05:14:00.741Z,59.34
2018-11-23T05:15:01.207Z,60.23
2018-11-23T05:16:01.678Z,59.39
2018-11-23T05:17:02.148Z,51.15
2018-11-23T05:18:02.626Z,45.80
2018-11-23T05:19:03.081Z,42.12
2018-11-23T05:20:03.549Z,48.19
2018-11-23T05:21:04.017Z,52.27
2018-11-23T05:22:04.483Z,55.77
2018-11-23T05:23:04.951Z,53.09
2018-11-23T05:24:05.421Z,59.38
2018-11-23T05:25:05.887Z,61.62
2018-11-23T05:26:06.356Z,59.54
2018-11-23T05:27:06.826Z,60.32
2018-11-23T05:28:07.292Z,59.00
2018-11-23T05:29:07.760Z,54.49
2018-11-23T05:30:08.231Z,50.12
2018-11-23T05:31:08.697Z,46.06
2018-11-23T05:32:09.163Z,53.38
2018-11-23T05:33:09.633Z,52.32
2018-11-23T05:34:10.100Z,50.27
2018-11-23T05:35:10.566Z,47.57
2018-11-23T05:36:11.035Z,43.32
2018-11-23T05:37:11.502Z,41.95
2018-11-23T05:38:11.969Z,41.07
2018-11-23T05:39:12.438Z,38.94
2018-11-23T05:40:12.904Z,42.72
2018-11-23T05:41:13.373Z,43.41
2018-11-23T05:42:13.841Z,48.30
2018-11-23T05:43:14.306Z,46.16
2018-11-23T05:44:14.776Z,40.68
2018-11-23T05:45:15.244Z,39.12
2018-11-23T05:46:15.711Z,37.67
2018-11-23T05:47:16.178Z,37.64
2018-11-23T05:48:16.649Z,38.10
2018-11-23T05:49:17.116Z,39.87
2018-11-23T05:50:17.584Z,51.01
2018-11-23T05:51:18.049Z,51.70
2018-11-23T05:52:18.518Z,51.95
2018-11-23T05:53:18.985Z,51.19
2018-11-23T05:54:19.455Z,53.49
2018-11-23T05:55:19.920Z,57.68
2018-11-23T05:56:20.389Z,55.15
2018-11-23T05:57:20.857Z,57.81
2018-11-23T05:58:21.324Z,59.42
2018-11-23T05:59:21.792Z,59.23
2018-11-23T06:00:22.260Z,59.71
2018-11-23T06:01:22.732Z,59.28
2018-11-23T06:02:23.194Z,60.21
2018-11-23T06:03:23.661Z,60.02
2018-11-23T06:04:24.128Z,59.53
2018-11-23T06:05:24.594Z,60.06
2018-11-23T06:06:25.899Z,59.75
2018-11-23T06:07:25.529Z,55.67
2018-11-23T06:08:25.997Z,57.73
2018-11-23T06:09:26.466Z,56.29
2018-11-23T06:10:26.932Z,53.41
2018-11-23T06:11:27.407Z,51.13
2018-11-23T06:12:27.867Z,51.25
2018-11-23T06:13:28.335Z,51.90
2018-11-23T06:14:28.802Z,51.50
2018-11-23T06:15:29.268Z,53.40
2018-11-23T06:16:29.736Z,51.66
2018-11-23T06:17:30.207Z,50.97
2018-11-23T06:18:30.671Z,50.32
2018-11-23T06:19:31.141Z,47.98
2018-11-23T06:20:31.607Z,45.81
2018-11-23T06:21:32.077Z,45.18
2018-11-23T06:22:32.541Z,43.22
2018-11-23T06:23:33.010Z,42.31
2018-11-23T06:24:33.476Z,41.64
2018-11-23T06:25:33.946Z,41.16
2018-11-23T06:26:34.410Z,40.85
2018-11-23T06:27:34.878Z,41.40
2018-11-23T06:28:35.345Z,40.53
2018-11-23T06:29:35.814Z,40.41
2018-11-23T06:30:36.279Z,41.00
2018-11-23T06:31:36.747Z,41.83
2018-11-23T06:32:37.214Z,42.10
2018-11-23T06:33:37.684Z,40.76
2018-11-23T06:34:38.158Z,39.81
2018-11-23T06:35:38.619Z,39.25
2018-11-23T06:36:39.086Z,38.42
2018-11-23T06:37:39.551Z,38.20
2018-11-23T06:38:40.026Z,38.51
2018-11-23T06:39:40.485Z,39.06
2018-11-23T06:40:40.956Z,39.43
2018-11-23T06:41:41.423Z,40.86
2018-11-23T06:42:42.226Z,41.99
2018-11-23T06:43:42.357Z,42.69
2018-11-23T06:44:42.823Z,43.08
2018-11-23T06:45:43.305Z,41.90
2018-11-23T06:46:43.821Z,41.69
2018-11-23T06:47:44.223Z,43.35
2018-11-23T06:48:44.693Z,44.42
2018-11-23T06:49:45.159Z,46.00
2018-11-23T06:50:45.641Z,45.57
2018-11-23T06:51:46.094Z,42.57
2018-11-23T06:52:46.561Z,42.40
2018-11-23T06:53:47.029Z,40.27
2018-11-23T06:54:47.496Z,42.88
2018-11-23T06:55:47.964Z,43.37
2018-11-23T06:56:48.430Z,46.27
2018-11-23T06:57:48.905Z,47.43
2018-11-23T06:58:49.364Z,47.72
2018-11-23T06:59:49.831Z,48.19
2018-11-23T07:00:50.300Z,48.48
2018-11-23T07:01:50.766Z,47.66
2018-11-23T07:02:51.285Z,45.97
2018-11-23T07:03:51.703Z,46.38
2018-11-23T07:04:52.168Z,46.59
2018-11-23T07:05:52.636Z,47.34
2018-11-23T07:06:53.104Z,48.39
2018-11-23T07:07:53.573Z,51.82
2018-11-23T07:08:54.045Z,53.31
2018-11-23T07:09:54.507Z,54.21
2018-11-23T07:10:54.974Z,54.95
2018-11-23T07:11:55.442Z,55.00
2018-11-23T07:12:55.910Z,54.88
2018-11-23T07:13:56.377Z,54.04
2018-11-23T07:14:56.845Z,51.00
2018-11-23T07:15:57.311Z,50.21
2018-11-23T07:16:57.784Z,48.86
2018-11-23T07:17:58.248Z,47.37
2018-11-23T07:18:58.718Z,49.35
2018-11-23T07:19:59.182Z,52.97
2018-11-23T07:20:59.652Z,55.05
2018-11-23T07:22:00.120Z,56.01
2018-11-23T07:23:00.588Z,57.02
2018-11-23T07:24:01.053Z,57.08
2018-11-23T07:25:01.524Z,56.50
2018-11-23T07:26:01.989Z,56.79
2018-11-23T07:27:02.457Z,56.55
2018-11-23T07:28:02.925Z,55.24
2018-11-23T07:29:03.393Z,53.16
2018-11-23T07:30:03.862Z,50.12
2018-11-23T07:31:04.331Z,49.51
2018-11-23T07:32:04.795Z,49.46
2018-11-23T07:33:05.265Z,50.89
2018-11-23T07:34:05.733Z,52.20
2018-11-23T07:35:06.199Z,52.28
2018-11-23T07:36:06.669Z,52.41
2018-11-23T07:37:07.137Z,52.57
2018-11-23T07:38:07.608Z,52.25
2018-11-23T07:39:08.073Z,51.42
2018-11-23T07:40:08.541Z,50.36
2018-11-23T07:41:09.008Z,50.66
2018-11-23T07:42:09.477Z,50.42
2018-11-23T07:43:09.945Z,50.12
2018-11-23T07:44:10.412Z,49.65
2018-11-23T07:45:10.880Z,48.20
2018-11-23T07:46:11.350Z,46.92
2018-11-23T07:47:11.819Z,45.78
2018-11-23T07:48:12.284Z,44.21
2018-11-23T07:49:12.755Z,43.16
2018-11-23T07:50:13.221Z,43.37
2018-11-23T07:51:13.690Z,43.24
2018-11-23T07:52:14.156Z,43.33
2018-11-23T07:53:14.625Z,42.80
2018-11-23T07:54:15.096Z,42.54
2018-11-23T07:55:15.566Z,42.25
2018-11-23T07:56:16.031Z,44.73
2018-11-23T07:57:16.502Z,42.50
2018-11-23T07:58:16.967Z,42.99
2018-11-23T07:59:17.438Z,44.80
2018-11-23T08:00:17.904Z,46.28
2018-11-23T08:01:18.375Z,47.07
2018-11-23T08:02:18.841Z,48.82
2018-11-23T08:03:19.314Z,49.68
2018-11-23T08:04:19.779Z,47.88
2018-11-23T08:05:20.248Z,47.88
2018-11-23T08:06:20.717Z,48.58
2018-11-23T08:07:21.213Z,50.19
2018-11-23T08:08:21.654Z,50.85
2018-11-23T08:09:22.121Z,50.84
2018-11-23T08:10:22.591Z,48.03
2018-11-23T08:11:23.059Z,46.34
2018-11-23T08:12:23.527Z,44.74
2018-11-23T08:13:23.996Z,43.91
2018-11-23T08:14:24.476Z,43.13
2018-11-23T08:15:24.936Z,42.56
2018-11-23T08:16:25.401Z,41.65
2018-11-23T08:17:25.875Z,41.02
2018-11-23T08:18:26.344Z,40.69
2018-11-23T08:19:26.811Z,40.64
2018-11-23T08:20:27.278Z,41.08
2018-11-23T08:21:27.748Z,42.70
2018-11-23T08:22:28.220Z,45.88
2018-11-23T08:23:28.707Z,47.26
2018-11-23T08:24:29.161Z,47.22
2018-11-23T08:25:29.624Z,47.48
2018-11-23T08:26:30.095Z,48.61
2018-11-23T08:27:30.563Z,48.70
2018-11-23T08:28:31.033Z,47.88
2018-11-23T08:29:31.501Z,46.98
2018-11-23T08:30:31.971Z,46.22
2018-11-23T08:31:32.439Z,45.45
2018-11-23T08:32:32.911Z,44.90
2018-11-23T08:33:33.380Z,43.98
2018-11-23T08:34:33.851Z,41.22
2018-11-23T08:35:34.319Z,44.57
2018-11-23T08:36:34.786Z,44.60
2018-11-23T08:37:35.256Z,45.79
2018-11-23T08:38:35.728Z,46.22
2018-11-23T08:39:36.195Z,46.43
2018-11-23T08:40:36.667Z,45.90
2018-11-23T08:41:37.133Z,47.02
2018-11-23T08:42:37.603Z,46.47
2018-11-23T08:43:38.073Z,44.75
2018-11-23T08:44:38.544Z,44.02
2018-11-23T08:45:39.016Z,43.45
2018-11-23T08:46:39.482Z,45.37
2018-11-23T08:47:39.955Z,46.26
2018-11-23T08:48:40.423Z,46.71
2018-11-23T08:49:40.892Z,46.58
2018-11-23T08:50:41.363Z,48.02
2018-11-23T08:51:41.833Z,50.04
2018-11-23T08:52:42.305Z,50.58
2018-11-23T08:53:42.772Z,51.00
2018-11-23T08:54:43.245Z,49.85
2018-11-23T08:55:43.746Z,47.21
2018-11-23T08:56:44.390Z,50.10
2018-11-23T08:57:44.652Z,48.46
2018-11-23T08:58:45.180Z,46.49
2018-11-23T08:59:45.593Z,44.84
2018-11-23T09:00:46.065Z,45.34
2018-11-23T09:01:46.538Z,46.63
2018-11-23T09:02:47.094Z,43.95
2018-11-23T09:03:47.476Z,42.52
2018-11-23T09:04:47.945Z,42.54
2018-11-23T09:05:48.417Z,42.48
2018-11-23T09:06:48.887Z,41.76
2018-11-23T09:07:49.358Z,41.75
2018-11-23T09:08:49.827Z,41.47
2018-11-23T09:09:50.298Z,41.34
2018-11-23T09:10:50.770Z,41.13
2018-11-23T09:11:51.242Z,41.74
2018-11-23T09:12:51.714Z,40.30
2018-11-23T09:13:52.181Z,39.43
2018-11-23T09:14:52.655Z,40.46
2018-11-23T09:15:53.123Z,38.14
2018-11-23T09:16:53.593Z,36.83
2018-11-23T09:17:54.068Z,36.30
2018-11-23T09:18:54.537Z,40.25
2018-11-23T09:19:55.008Z,41.30
2018-11-23T09:20:55.478Z,37.79
2018-11-23T09:21:55.948Z,37.14
2018-11-23T09:22:56.420Z,38.46
2018-11-23T09:23:56.895Z,37.97
2018-11-23T09:24:57.362Z,40.15
2018-11-23T09:25:57.838Z,38.96
2018-11-23T09:26:58.306Z,38.46
2018-11-23T09:27:58.775Z,37.92
2018-11-23T09:28:59.246Z,37.57
2018-11-23T09:29:59.718Z,38.01
2018-11-23T09:31:00.191Z,38.44
2018-11-23T09:32:00.665Z,36.99
2018-11-23T09:33:01.140Z,36.93
2018-11-23T09:34:01.603Z,36.93
2018-11-23T09:35:02.091Z,37.06
2018-11-23T09:36:02.547Z,37.69
2018-11-23T09:37:03.019Z,37.38
2018-11-23T09:38:03.505Z,38.04
2018-11-23T09:39:03.963Z,37.33
2018-11-23T09:40:04.433Z,36.70
2018-11-23T09:41:04.905Z,36.70
2018-11-23T09:42:05.376Z,36.55
2018-11-23T09:43:05.848Z,35.60
2018-11-23T09:44:06.324Z,35.00
2018-11-23T09:45:06.791Z,34.43
2018-11-23T09:46:07.263Z,35.71
2018-11-23T09:47:10.138Z,34.12
2018-11-23T09:48:08.208Z,33.03
2018-11-23T09:49:08.678Z,32.72
2018-11-23T09:50:09.150Z,32.56
2018-11-23T09:51:09.626Z,33.05
2018-11-23T09:52:10.096Z,31.82
2018-11-23T09:53:10.568Z,31.51
2018-11-23T09:54:11.040Z,32.16
2018-11-23T09:55:11.514Z,32.10
2018-11-23T09:56:11.983Z,32.63
2018-11-23T09:57:12.456Z,31.46
2018-11-23T09:58:12.928Z,31.98
2018-11-23T09:59:13.406Z,31.46
2018-11-23T10:00:13.872Z,32.59
2018-11-23T10:01:14.347Z,32.10
2018-11-23T10:02:14.820Z,32.35
2018-11-23T10:03:15.291Z,32.74
2018-11-23T10:04:15.764Z,32.68
2018-11-23T10:05:16.239Z,32.19
2018-11-23T10:06:16.715Z,32.31
2018-11-23T10:07:17.184Z,32.02
2018-11-23T10:08:17.653Z,32.09
2018-11-23T10:09:18.126Z,32.09
2018-11-23T10:10:18.599Z,32.73
2018-11-23T10:11:19.070Z,31.95
2018-11-23T10:12:19.543Z,31.66
2018-11-23T10:13:20.017Z,31.83
2018-11-23T10:14:20.490Z,31.17
2018-11-23T10:15:20.960Z,31.86
2018-11-23T10:16:21.432Z,31.18
2018-11-23T10:17:21.904Z,31.05
2018-11-23T10:18:22.377Z,30.27
2018-11-23T10:19:22.852Z,30.63
2018-11-23T10:20:23.324Z,30.76
2018-11-23T10:21:23.791Z,30.80
2018-11-23T10:22:24.266Z,31.07
2018-11-23T10:23:24.775Z,30.81
2018-11-23T10:24:25.208Z,30.65
2018-11-23T10:25:25.675Z,31.02
2018-11-23T10:26:26.146Z,30.89
2018-11-23T10:27:26.640Z,30.43
2018-11-23T10:29:27.557Z,31.88
2018-11-23T10:30:28.026Z,31.55
2018-11-23T10:31:28.500Z,31.42
2018-11-23T10:32:28.969Z,30.83
2018-11-23T10:33:29.446Z,29.98
2018-11-23T10:34:29.905Z,30.63
2018-11-23T10:35:30.374Z,29.85
2018-11-23T10:36:30.841Z,30.76
2018-11-23T10:37:31.309Z,30.17
2018-11-23T10:38:31.779Z,32.33
2018-11-23T10:39:32.247Z,31.48
2018-11-23T10:40:32.716Z,31.36
2018-11-23T10:41:33.184Z,30.11
2018-11-23T10:42:33.654Z,30.97
2018-11-23T10:43:34.123Z,31.23
2018-11-23T10:44:34.591Z,32.35
2018-11-23T10:45:35.062Z,31.76
2018-11-23T10:46:35.528Z,31.94
2018-11-23T10:47:35.997Z,32.63
2018-11-23T10:48:36.467Z,33.60
2018-11-23T10:49:36.935Z,32.47
2018-11-23T10:50:37.402Z,32.82
2018-11-23T10:51:37.871Z,31.12
2018-11-23T10:52:38.342Z,32.88
2018-11-23T10:53:38.810Z,33.20
2018-11-23T10:54:39.279Z,31.37
2018-11-23T10:55:39.756Z,31.37
2018-11-23T10:56:40.220Z,34.25
2018-11-23T10:57:40.688Z,33.39
2018-11-23T10:58:41.175Z,33.40
2018-11-23T10:59:41.627Z,32.75
2018-11-23T11:00:42.099Z,32.81
2018-11-23T11:01:42.569Z,33.42
2018-11-23T11:02:43.035Z,34.52
2018-11-23T11:03:43.506Z,33.71
2018-11-23T11:04:43.979Z,32.87
2018-11-23T11:05:44.468Z,31.96
2018-11-23T11:06:44.949Z,32.73
2018-11-23T11:07:45.387Z,33.06
2018-11-23T11:08:45.858Z,32.22
2018-11-23T11:09:46.326Z,32.41
2018-11-23T11:10:46.800Z,32.87
2018-11-23T11:11:47.268Z,32.58
2018-11-23T11:12:47.742Z,32.49
2018-11-23T11:13:48.212Z,31.91
2018-11-23T11:14:48.686Z,31.85
2018-11-23T11:15:49.153Z,31.84
2018-11-23T11:16:49.626Z,33.01
2018-11-23T11:17:50.096Z,32.42
2018-11-23T11:18:50.567Z,32.58
2018-11-23T11:19:51.043Z,32.16
2018-11-23T11:20:51.513Z,33.13
2018-11-23T11:21:51.982Z,33.50
2018-11-23T11:22:52.457Z,33.95
2018-11-23T11:23:52.925Z,34.46
2018-11-23T11:24:53.396Z,33.45
2018-11-23T11:25:53.870Z,34.35
2018-11-23T11:26:54.339Z,32.32
2018-11-23T11:27:54.812Z,33.10
2018-11-23T11:28:55.283Z,32.84
2018-11-23T11:29:55.755Z,31.87
2018-11-23T11:30:56.736Z,33.23
2018-11-23T11:31:56.699Z,31.55
2018-11-23T11:32:57.174Z,31.23
2018-11-23T11:33:57.645Z,30.71
2018-11-23T11:34:58.117Z,30.78
2018-11-23T11:35:58.591Z,31.21
2018-11-23T11:36:59.064Z,29.93
2018-11-23T11:37:59.535Z,30.59
2018-11-23T11:39:00.012Z,29.43
2018-11-23T11:40:00.483Z,30.16
2018-11-23T11:41:00.953Z,29.84
2018-11-23T11:42:01.426Z,29.74
2018-11-23T11:43:01.899Z,29.60
2018-11-23T11:44:02.373Z,29.80
2018-11-23T11:45:02.844Z,30.65
2018-11-23T11:46:03.318Z,30.82
2018-11-23T11:47:03.786Z,30.33
2018-11-23T11:48:04.259Z,30.53
2018-11-23T11:49:04.734Z,30.73
2018-11-23T11:50:05.207Z,30.93
2018-11-23T11:51:05.677Z,30.73
2018-11-23T11:52:06.148Z,29.35
2018-11-23T11:53:06.619Z,29.22
2018-11-23T11:54:07.089Z,27.91
2018-11-23T11:55:07.559Z,29.79
2018-11-23T11:56:08.029Z,29.89
2018-11-23T11:57:08.502Z,29.17
2018-11-23T11:58:08.970Z,28.08
2018-11-23T11:59:09.442Z,27.25
2018-11-23T12:00:09.910Z,28.84
2018-11-23T12:01:10.378Z,29.36
2018-11-23T12:02:10.847Z,29.11
2018-11-23T12:03:11.318Z,29.25
2018-11-23T12:04:11.788Z,28.60
2018-11-23T12:05:12.256Z,28.38
2018-11-23T12:06:12.731Z,27.91
2018-11-23T12:07:13.191Z,29.53
2018-11-23T12:08:13.661Z,28.22
2018-11-23T12:09:14.132Z,28.60
2018-11-23T12:10:14.599Z,27.78
2018-11-23T12:11:15.159Z,28.37
2018-11-23T12:12:15.539Z,28.29
2018-11-23T12:13:16.004Z,28.40
2018-11-23T12:14:16.474Z,29.19
2018-11-23T12:15:16.943Z,28.66
2018-11-23T12:16:17.411Z,29.33
2018-11-23T12:17:17.878Z,28.20
2018-11-23T12:18:18.349Z,29.22
2018-11-23T12:19:18.972Z,29.65
2018-11-23T12:20:19.439Z,28.76
2018-11-23T12:21:19.843Z,28.99
2018-11-23T12:22:20.304Z,28.99
2018-11-23T12:23:20.826Z,28.65
2018-11-23T12:24:21.287Z,27.99
2018-11-23T12:25:21.759Z,28.40
2018-11-23T12:26:22.119Z,28.46
2018-11-23T12:27:22.676Z,28.86
2018-11-23T12:28:23.140Z,28.43
2018-11-23T12:29:23.604Z,27.14
2018-11-23T12:30:24.125Z,26.07
2018-11-23T12:31:24.542Z,27.75
2018-11-23T12:32:24.994Z,26.63
2018-11-23T12:33:25.456Z,25.99
2018-11-23T12:34:25.887Z,26.69
2018-11-23T12:35:26.384Z,27.95
2018-11-23T12:36:26.907Z,27.35
2018-11-23T12:37:27.370Z,27.15
2018-11-23T12:38:27.831Z,25.95
2018-11-23T12:39:28.296Z,25.89
2018-11-23T12:40:28.764Z,26.03
2018-11-23T12:41:29.214Z,25.35
2018-11-23T12:42:29.746Z,24.81
2018-11-23T12:43:30.150Z,25.41
2018-11-23T12:44:30.681Z,26.17
2018-11-23T12:45:31.196Z,27.06
2018-11-23T12:46:31.575Z,26.79
2018-11-23T12:47:32.065Z,26.56
2018-11-23T12:48:32.528Z,25.34
2018-11-23T12:49:32.988Z,25.29
2018-11-23T12:50:33.532Z,26.65
2018-11-23T12:51:33.914Z,27.41
2018-11-23T12:52:34.336Z,27.20
2018-11-23T12:53:34.802Z,28.84
2018-11-23T12:54:35.274Z,28.24
2018-11-23T12:55:35.745Z,27.65
2018-11-23T12:56:36.217Z,27.76
2018-11-23T12:57:36.687Z,27.72
2018-11-23T12:58:37.160Z,26.20
2018-11-23T12:59:37.633Z,26.08